sensor_id;sensor_type;location;lat;lon;timestamp;pressure;altitude;pressure_sealevel;temperature;humidity
12178;BME280;6152;48.728;9.256;2023-05-08T00:02:11;97331.38;;;14.42;100.00
12178;BME280;6152;48.728;9.256;2023-05-08T00:04:37;97330.53;;;14.42;100.00
12178;BME280;6152;48.728;9.256;2023-05-08T00:07:03;97326.16;;;14.42;100.00
12178;BME280;6152;48.728;9.256;2023-05-08T00:09:30;97327.81;;;14.43;100.00
12178;BME280;6152;48.728;9.256;2023-05-08T00:11:56;97325.06;;;14.45;100.00
12178;BME280;6152;48.728;9.256;2023-05-08T00:14:22;97326.75;;;14.46;100.00
12178;BME280;6152;48.728;9.256;2023-05-08T00:16:48;97320.69;;;14.45;100.00
12178;BME280;6152;48.728;9.256;2023-05-08T00:19:14;97320.69;;;14.45;100.00
12178;BME280;6152;48.728;9.256;2023-05-08T00:21:40;97328.53;;;14.45;100.00
12178;BME280;6152;48.728;9.256;2023-05-08T00:24:07;97325.91;;;14.45;100.00
12178;BME280;6152;48.728;9.256;2023-05-08T00:26:33;97333.78;;;14.45;100.00
12178;BME280;6152;48.728;9.256;2023-05-08T00:28:59;97336.41;;;14.45;100.00
12178;BME280;6152;48.728;9.256;2023-05-08T00:31:25;97325.06;;;14.45;100.00
12178;BME280;6152;48.728;9.256;2023-05-08T00:33:51;97325.91;;;14.45;100.00
12178;BME280;6152;48.728;9.256;2023-05-08T00:36:17;97329.50;;;14.44;100.00
12178;BME280;6152;48.728;9.256;2023-05-08T00:38:43;97337.47;;;14.43;100.00
12178;BME280;6152;48.728;9.256;2023-05-08T00:41:09;97329.00;;;14.39;100.00
12178;BME280;6152;48.728;9.256;2023-05-08T00:43:35;97328.28;;;14.37;100.00
12178;BME280;6152;48.728;9.256;2023-05-08T00:46:02;97333.28;;;14.40;100.00
12178;BME280;6152;48.728;9.256;2023-05-08T00:48:31;97338.53;;;14.40;100.00
12178;BME280;6152;48.728;9.256;2023-05-08T00:50:58;97337.69;;;14.40;100.00
12178;BME280;6152;48.728;9.256;2023-05-08T00:53:26;97332.53;;;14.38;100.00
12178;BME280;6152;48.728;9.256;2023-05-08T00:55:53;97336.63;;;14.42;100.00
12178;BME280;6152;48.728;9.256;2023-05-08T00:58:20;97334.00;;;14.42;100.00
12178;BME280;6152;48.728;9.256;2023-05-08T01:00:49;97344.38;;;14.44;100.00
12178;BME280;6152;48.728;9.256;2023-05-08T01:03:15;97342.09;;;14.39;100.00
12178;BME280;6152;48.728;9.256;2023-05-08T01:05:42;97342.50;;;14.33;100.00
12178;BME280;6152;48.728;9.256;2023-05-08T01:08:09;97346.38;;;14.28;100.00
12178;BME280;6152;48.728;9.256;2023-05-08T01:16:43;97349.84;;;14.28;100.00
12178;BME280;6152;48.728;9.256;2023-05-08T01:33:39;97356.44;;;14.21;100.00
12178;BME280;6152;48.728;9.256;2023-05-08T01:36:14;97349.66;;;14.18;100.00
12178;BME280;6152;48.728;9.256;2023-05-08T01:41:34;97351.13;;;14.23;100.00
12178;BME280;6152;48.728;9.256;2023-05-08T01:44:15;97355.72;;;14.19;100.00
12178;BME280;6152;48.728;9.256;2023-05-08T01:46:44;97351.34;;;14.20;100.00
12178;BME280;6152;48.728;9.256;2023-05-08T01:49:27;97353.84;;;14.21;100.00
12178;BME280;6152;48.728;9.256;2023-05-08T01:52:08;97358.03;;;14.24;100.00
12178;BME280;6152;48.728;9.256;2023-05-08T01:54:55;97357.41;;;14.20;100.00
12178;BME280;6152;48.728;9.256;2023-05-08T01:57:25;97352.59;;;14.14;100.00
12178;BME280;6152;48.728;9.256;2023-05-08T01:59:56;97357.00;;;14.13;100.00
12178;BME280;6152;48.728;9.256;2023-05-08T02:02:27;97355.34;;;14.12;100.00
12178;BME280;6152;48.728;9.256;2023-05-08T02:04:54;97357.81;;;14.14;100.00
12178;BME280;6152;48.728;9.256;2023-05-08T02:07:22;97356.06;;;14.14;100.00
12178;BME280;6152;48.728;9.256;2023-05-08T02:09:49;97360.44;;;14.14;100.00
12178;BME280;6152;48.728;9.256;2023-05-08T02:12:17;97359.50;;;14.15;100.00
12178;BME280;6152;48.728;9.256;2023-05-08T02:14:45;97360.34;;;14.15;100.00
12178;BME280;6152;48.728;9.256;2023-05-08T02:17:16;97359.50;;;14.15;100.00
12178;BME280;6152;48.728;9.256;2023-05-08T02:19:43;97356.19;;;14.13;100.00
12178;BME280;6152;48.728;9.256;2023-05-08T02:22:09;97353.66;;;14.11;100.00
12178;BME280;6152;48.728;9.256;2023-05-08T02:24:38;97350.94;;;14.13;100.00
12178;BME280;6152;48.728;9.256;2023-05-08T02:27:06;97360.56;;;14.12;100.00
12178;BME280;6152;48.728;9.256;2023-05-08T02:29:34;97365.81;;;14.12;100.00
12178;BME280;6152;48.728;9.256;2023-05-08T02:32:01;97358.88;;;14.11;100.00
12178;BME280;6152;48.728;9.256;2023-05-08T02:34:29;97370.19;;;14.12;100.00
12178;BME280;6152;48.728;9.256;2023-05-08T02:36:57;97371.88;;;14.13;100.00
12178;BME280;6152;48.728;9.256;2023-05-08T02:39:30;97367.69;;;14.10;100.00
12178;BME280;6152;48.728;9.256;2023-05-08T02:41:57;97372.09;;;14.10;100.00
12178;BME280;6152;48.728;9.256;2023-05-08T02:44:23;97373.97;;;14.08;100.00
12178;BME280;6152;48.728;9.256;2023-05-08T02:46:56;97367.91;;;14.07;100.00
12178;BME280;6152;48.728;9.256;2023-05-08T02:49:42;97365.63;;;14.03;100.00
12178;BME280;6152;48.728;9.256;2023-05-08T02:52:31;97367.72;;;13.98;100.00
12178;BME280;6152;48.728;9.256;2023-05-08T02:54:59;97371.16;;;13.98;100.00
12178;BME280;6152;48.728;9.256;2023-05-08T03:00:17;97360.59;;;14.00;100.00
12178;BME280;6152;48.728;9.256;2023-05-08T03:03:45;97357.16;;;13.99;100.00
12178;BME280;6152;48.728;9.256;2023-05-08T03:06:08;97352.84;;;13.98;100.00
12178;BME280;6152;48.728;9.256;2023-05-08T03:08:38;97352.00;;;13.98;100.00
12178;BME280;6152;48.728;9.256;2023-05-08T03:11:15;97358.19;;;13.97;100.00
12178;BME280;6152;48.728;9.256;2023-05-08T03:13:44;97357.25;;;13.98;100.00
12178;BME280;6152;48.728;9.256;2023-05-08T03:16:16;97355.56;;;13.97;100.00
12178;BME280;6152;48.728;9.256;2023-05-08T03:18:55;97348.69;;;13.96;100.00
12178;BME280;6152;48.728;9.256;2023-05-08T03:21:27;97355.78;;;13.94;100.00
12178;BME280;6152;48.728;9.256;2023-05-08T03:23:54;97354.09;;;13.93;100.00
12178;BME280;6152;48.728;9.256;2023-05-08T03:26:22;97358.94;;;13.99;100.00
12178;BME280;6152;48.728;9.256;2023-05-08T03:28:52;97357.97;;;14.00;100.00
12178;BME280;6152;48.728;9.256;2023-05-08T03:31:19;97355.34;;;14.00;100.00
12178;BME280;6152;48.728;9.256;2023-05-08T03:33:47;97358.72;;;14.02;100.00
12178;BME280;6152;48.728;9.256;2023-05-08T03:36:15;97356.81;;;14.04;100.00
12178;BME280;6152;48.728;9.256;2023-05-08T03:38:42;97362.16;;;14.02;100.00
12178;BME280;6152;48.728;9.256;2023-05-08T03:41:09;97351.56;;;14.04;100.00
12178;BME280;6152;48.728;9.256;2023-05-08T03:43:36;97358.06;;;14.11;100.00
12178;BME280;6152;48.728;9.256;2023-05-08T03:46:04;97362.66;;;14.07;100.00
12178;BME280;6152;48.728;9.256;2023-05-08T03:48:34;97361.00;;;14.06;100.00
12178;BME280;6152;48.728;9.256;2023-05-08T03:51:04;97360.19;;;14.06;100.00
12178;BME280;6152;48.728;9.256;2023-05-08T03:53:31;97363.28;;;14.11;100.00
12178;BME280;6152;48.728;9.256;2023-05-08T03:55:58;97362.56;;;14.09;100.00
12178;BME280;6152;48.728;9.256;2023-05-08T03:59:16;97366.13;;;14.08;100.00
12178;BME280;6152;48.728;9.256;2023-05-08T04:01:53;97363.63;;;14.06;100.00
12178;BME280;6152;48.728;9.256;2023-05-08T04:04:39;97360.78;;;14.09;100.00
12178;BME280;6152;48.728;9.256;2023-05-08T04:12:40;97361.19;;;14.03;100.00
12178;BME280;6152;48.728;9.256;2023-05-08T04:15:19;97369.41;;;13.99;100.00
12178;BME280;6152;48.728;9.256;2023-05-08T04:17:56;97377.25;;;13.99;100.00
12178;BME280;6152;48.728;9.256;2023-05-08T04:20:26;97375.47;;;13.99;100.00
12178;BME280;6152;48.728;9.256;2023-05-08T04:22:53;97379.75;;;14.00;100.00
12178;BME280;6152;48.728;9.256;2023-05-08T04:25:20;97377.97;;;14.01;100.00
12178;BME280;6152;48.728;9.256;2023-05-08T04:27:47;97389.91;;;14.05;100.00
12178;BME280;6152;48.728;9.256;2023-05-08T04:30:16;97389.91;;;14.05;100.00
12178;BME280;6152;48.728;9.256;2023-05-08T04:32:42;97393.22;;;14.07;100.00
12178;BME280;6152;48.728;9.256;2023-05-08T04:35:10;97400.38;;;14.05;100.00
12178;BME280;6152;48.728;9.256;2023-05-08T04:37:38;97397.13;;;14.01;100.00
12178;BME280;6152;48.728;9.256;2023-05-08T04:40:06;97402.03;;;14.06;100.00
12178;BME280;6152;48.728;9.256;2023-05-08T04:42:33;97402.97;;;14.05;100.00
12178;BME280;6152;48.728;9.256;2023-05-08T04:45:04;97400.38;;;14.05;100.00
12178;BME280;6152;48.728;9.256;2023-05-08T04:47:34;97401.22;;;14.05;100.00
12178;BME280;6152;48.728;9.256;2023-05-08T04:50:00;97405.16;;;14.11;100.00
12178;BME280;6152;48.728;9.256;2023-05-08T04:52:26;97403.50;;;14.10;100.00
12178;BME280;6152;48.728;9.256;2023-05-08T04:54:52;97404.44;;;14.09;100.00
12178;BME280;6152;48.728;9.256;2023-05-08T04:57:19;97403.50;;;14.10;100.00
12178;BME280;6152;48.728;9.256;2023-05-08T04:59:45;97413.75;;;14.13;100.00
12178;BME280;6152;48.728;9.256;2023-05-08T05:02:11;97410.59;;;14.21;100.00
12178;BME280;6152;48.728;9.256;2023-05-08T05:04:37;97408.09;;;14.19;100.00
12178;BME280;6152;48.728;9.256;2023-05-08T05:07:03;97411.34;;;14.23;100.00
12178;BME280;6152;48.728;9.256;2023-05-08T05:09:30;97411.88;;;14.15;100.00
12178;BME280;6152;48.728;9.256;2023-05-08T05:11:56;97412.47;;;14.18;100.00
12178;BME280;6152;48.728;9.256;2023-05-08T05:14:22;97416.66;;;14.21;100.00
12178;BME280;6152;48.728;9.256;2023-05-08T05:16:48;97411.41;;;14.21;100.00
12178;BME280;6152;48.728;9.256;2023-05-08T05:19:14;97418.34;;;14.22;100.00
12178;BME280;6152;48.728;9.256;2023-05-08T05:21:41;97422.44;;;14.26;100.00
12178;BME280;6152;48.728;9.256;2023-05-08T05:24:07;97428.59;;;14.25;100.00
12178;BME280;6152;48.728;9.256;2023-05-08T05:26:33;97422.19;;;14.29;100.00
12178;BME280;6152;48.728;9.256;2023-05-08T05:28:59;97432.47;;;14.32;100.00
12178;BME280;6152;48.728;9.256;2023-05-08T05:31:27;97426.19;;;14.35;100.00
12178;BME280;6152;48.728;9.256;2023-05-08T05:33:54;97424.81;;;14.29;100.00
12178;BME280;6152;48.728;9.256;2023-05-08T05:36:21;97438.63;;;14.31;100.00
12178;BME280;6152;48.728;9.256;2023-05-08T05:38:47;97438.53;;;14.33;100.00
12178;BME280;6152;48.728;9.256;2023-05-08T05:41:13;97438.63;;;14.31;100.00
12178;BME280;6152;48.728;9.256;2023-05-08T05:43:40;97433.22;;;14.34;100.00
12178;BME280;6152;48.728;9.256;2023-05-08T05:46:07;97441.16;;;14.33;100.00
12178;BME280;6152;48.728;9.256;2023-05-08T05:48:33;97434.88;;;14.35;100.00
12178;BME280;6152;48.728;9.256;2023-05-08T05:50:59;97438.44;;;14.34;100.00
12178;BME280;6152;48.728;9.256;2023-05-08T05:53:26;97434.13;;;14.33;100.00
12178;BME280;6152;48.728;9.256;2023-05-08T05:55:52;97434.22;;;14.32;100.00
12178;BME280;6152;48.728;9.256;2023-05-08T05:58:19;97437.69;;;14.32;100.00
12178;BME280;6152;48.728;9.256;2023-05-08T06:00:45;97440.31;;;14.32;100.00
12178;BME280;6152;48.728;9.256;2023-05-08T06:03:12;97430.69;;;14.33;100.00
12178;BME280;6152;48.728;9.256;2023-05-08T06:05:39;97432.19;;;14.37;100.00
12178;BME280;6152;48.728;9.256;2023-05-08T06:08:06;97435.19;;;14.43;100.00
12178;BME280;6152;48.728;9.256;2023-05-08T06:10:33;97433.19;;;14.47;100.00
12178;BME280;6152;48.728;9.256;2023-05-08T06:12:59;97438.00;;;14.53;100.00
12178;BME280;6152;48.728;9.256;2023-05-08T06:15:25;97437.16;;;14.52;100.00
12178;BME280;6152;48.728;9.256;2023-05-08T06:17:51;97435.50;;;14.51;100.00
12178;BME280;6152;48.728;9.256;2023-05-08T06:20:19;97435.78;;;14.59;100.00
12178;BME280;6152;48.728;9.256;2023-05-08T06:22:45;97442.47;;;14.63;100.00
12178;BME280;6152;48.728;9.256;2023-05-08T06:25:11;97448.41;;;14.65;100.00
12178;BME280;6152;48.728;9.256;2023-05-08T06:27:37;97447.38;;;14.68;100.00
12178;BME280;6152;48.728;9.256;2023-05-08T06:30:04;97438.25;;;14.74;100.00
12178;BME280;6152;48.728;9.256;2023-05-08T06:32:33;97449.25;;;14.79;100.00
12178;BME280;6152;48.728;9.256;2023-05-08T06:34:59;97454.66;;;14.88;100.00
12178;BME280;6152;48.728;9.256;2023-05-08T06:37:25;97457.53;;;14.96;100.00
12178;BME280;6152;48.728;9.256;2023-05-08T06:39:51;97454.34;;;15.04;100.00
12178;BME280;6152;48.728;9.256;2023-05-08T06:42:17;97455.09;;;15.06;100.00
12178;BME280;6152;48.728;9.256;2023-05-08T06:44:44;97463.56;;;15.09;100.00
12178;BME280;6152;48.728;9.256;2023-05-08T06:47:10;97461.06;;;15.08;100.00
12178;BME280;6152;48.728;9.256;2023-05-08T06:49:36;97461.44;;;15.14;100.00
12178;BME280;6152;48.728;9.256;2023-05-08T06:52:03;97459.44;;;15.18;100.00
12178;BME280;6152;48.728;9.256;2023-05-08T06:54:29;97467.06;;;15.21;100.00
12178;BME280;6152;48.728;9.256;2023-05-08T06:56:55;97463.97;;;15.16;100.00
12178;BME280;6152;48.728;9.256;2023-05-08T06:59:21;97461.22;;;15.17;100.00
12178;BME280;6152;48.728;9.256;2023-05-08T07:01:50;97458.50;;;15.19;100.00
12178;BME280;6152;48.728;9.256;2023-05-08T07:04:16;97467.06;;;15.21;100.00
12178;BME280;6152;48.728;9.256;2023-05-08T07:06:42;97466.03;;;15.24;100.00
12178;BME280;6152;48.728;9.256;2023-05-08T07:09:08;97468.53;;;15.25;100.00
12178;BME280;6152;48.728;9.256;2023-05-08T07:11:35;97464.94;;;15.26;100.00
12178;BME280;6152;48.728;9.256;2023-05-08T07:14:01;97469.97;;;15.29;100.00
12178;BME280;6152;48.728;9.256;2023-05-08T07:16:28;97466.41;;;15.30;100.00
12178;BME280;6152;48.728;9.256;2023-05-08T07:18:54;97467.34;;;15.29;100.00
12178;BME280;6152;48.728;9.256;2023-05-08T07:21:20;97475.94;;;15.31;100.00
12178;BME280;6152;48.728;9.256;2023-05-08T07:23:46;97477.00;;;15.29;100.00
12178;BME280;6152;48.728;9.256;2023-05-08T07:26:13;97476.91;;;15.30;100.00
12178;BME280;6152;48.728;9.256;2023-05-08T07:28:40;97473.75;;;15.25;100.00
12178;BME280;6152;48.728;9.256;2023-05-08T07:31:06;97484.94;;;15.16;100.00
12178;BME280;6152;48.728;9.256;2023-05-08T07:33:32;97481.78;;;15.11;100.00
12178;BME280;6152;48.728;9.256;2023-05-08T07:35:59;97483.81;;;15.07;100.00
12178;BME280;6152;48.728;9.256;2023-05-08T07:38:26;97490.81;;;15.07;100.00
12178;BME280;6152;48.728;9.256;2023-05-08T07:40:52;97486.03;;;15.01;100.00
12178;BME280;6152;48.728;9.256;2023-05-08T07:43:24;97484.47;;;14.98;100.00
12178;BME280;6152;48.728;9.256;2023-05-08T07:45:50;97490.19;;;14.92;100.00
12178;BME280;6152;48.728;9.256;2023-05-08T07:48:17;97486.63;;;14.81;100.00
12178;BME280;6152;48.728;9.256;2023-05-08T07:50:43;97483.00;;;14.71;100.00
12178;BME280;6152;48.728;9.256;2023-05-08T07:53:09;97489.00;;;14.60;100.00
12178;BME280;6152;48.728;9.256;2023-05-08T07:55:36;97487.44;;;14.57;100.00
12178;BME280;6152;48.728;9.256;2023-05-08T07:58:02;97481.75;;;14.63;100.00
12178;BME280;6152;48.728;9.256;2023-05-08T08:00:29;97486.34;;;14.73;100.00
12178;BME280;6152;48.728;9.256;2023-05-08T08:02:56;97480.47;;;14.82;100.00
12178;BME280;6152;48.728;9.256;2023-05-08T08:05:22;97491.22;;;14.90;100.00
12178;BME280;6152;48.728;9.256;2023-05-08T08:07:48;97494.06;;;14.87;100.00
12178;BME280;6152;48.728;9.256;2023-05-08T08:10:14;97492.41;;;14.86;100.00
12178;BME280;6152;48.728;9.256;2023-05-08T08:12:40;97490.63;;;14.74;100.00
12178;BME280;6152;48.728;9.256;2023-05-08T08:15:07;97486.56;;;14.70;100.00
12178;BME280;6152;48.728;9.256;2023-05-08T08:17:33;97488.91;;;14.61;100.00
12178;BME280;6152;48.728;9.256;2023-05-08T08:19:59;97492.47;;;14.60;100.00
12178;BME280;6152;48.728;9.256;2023-05-08T08:22:26;97494.03;;;14.63;100.00
12178;BME280;6152;48.728;9.256;2023-05-08T08:24:54;97487.31;;;14.72;100.00
12178;BME280;6152;48.728;9.256;2023-05-08T08:27:20;97494.19;;;14.73;100.00
12178;BME280;6152;48.728;9.256;2023-05-08T08:29:47;97499.44;;;14.73;100.00
12178;BME280;6152;48.728;9.256;2023-05-08T08:32:13;97498.94;;;14.68;100.00
12178;BME280;6152;48.728;9.256;2023-05-08T08:34:39;97501.03;;;14.62;100.00
12178;BME280;6152;48.728;9.256;2023-05-08T08:37:05;97505.25;;;14.65;100.00
12178;BME280;6152;48.728;9.256;2023-05-08T08:39:32;97495.78;;;14.75;100.00
12178;BME280;6152;48.728;9.256;2023-05-08T08:41:59;97502.06;;;14.73;100.00
12178;BME280;6152;48.728;9.256;2023-05-08T08:44:25;97502.50;;;14.66;100.00
12178;BME280;6152;48.728;9.256;2023-05-08T08:46:52;97494.75;;;14.65;100.00
12178;BME280;6152;48.728;9.256;2023-05-08T08:49:27;97494.72;;;14.78;100.00
12178;BME280;6152;48.728;9.256;2023-05-08T08:51:58;97498.25;;;14.89;100.00
12178;BME280;6152;48.728;9.256;2023-05-08T08:54:29;97496.53;;;15.01;100.00
12178;BME280;6152;48.728;9.256;2023-05-08T08:57:03;97498.03;;;14.92;100.00
12178;BME280;6152;48.728;9.256;2023-05-08T08:59:32;97501.28;;;14.96;100.00
12178;BME280;6152;48.728;9.256;2023-05-08T09:02:05;97501.59;;;14.91;100.00
12178;BME280;6152;48.728;9.256;2023-05-08T09:04:33;97503.66;;;14.99;100.00
12178;BME280;6152;48.728;9.256;2023-05-08T09:07:00;97507.84;;;15.01;100.00
12178;BME280;6152;48.728;9.256;2023-05-08T09:09:33;97506.38;;;15.10;100.00
12178;BME280;6152;48.728;9.256;2023-05-08T09:12:01;97504.13;;;15.16;100.00
12178;BME280;6152;48.728;9.256;2023-05-08T09:14:27;97509.25;;;15.18;100.00
12178;BME280;6152;48.728;9.256;2023-05-08T09:16:53;97508.59;;;15.27;100.00
12178;BME280;6152;48.728;9.256;2023-05-08T09:19:20;97502.22;;;15.42;100.00
12178;BME280;6152;48.728;9.256;2023-05-08T09:21:48;97514.09;;;15.59;100.00
12178;BME280;6152;48.728;9.256;2023-05-08T09:24:15;97503.75;;;15.57;100.00
12178;BME280;6152;48.728;9.256;2023-05-08T09:26:41;97506.28;;;15.46;100.00
12178;BME280;6152;48.728;9.256;2023-05-08T09:31:43;97505.44;;;15.70;100.00
12178;BME280;6152;48.728;9.256;2023-05-08T09:34:21;97509.47;;;15.62;100.00
12178;BME280;6152;48.728;9.256;2023-05-08T09:36:49;97508.25;;;15.55;100.00
12178;BME280;6152;48.728;9.256;2023-05-08T09:39:21;97513.25;;;15.58;100.00
12178;BME280;6152;48.728;9.256;2023-05-08T09:42:08;97510.44;;;15.73;100.00
12178;BME280;6152;48.728;9.256;2023-05-08T09:47:12;97513.41;;;16.03;100.00
12178;BME280;6152;48.728;9.256;2023-05-08T09:49:39;97512.56;;;16.02;100.00
12178;BME280;6152;48.728;9.256;2023-05-08T09:52:06;97512.34;;;16.05;100.00
12178;BME280;6152;48.728;9.256;2023-05-08T09:54:33;97510.19;;;16.10;100.00
12178;BME280;6152;48.728;9.256;2023-05-08T09:56:59;97509.09;;;16.02;100.00
12178;BME280;6152;48.728;9.256;2023-05-08T09:59:27;97521.50;;;16.00;100.00
12178;BME280;6152;48.728;9.256;2023-05-08T10:01:55;97515.53;;;15.98;100.00
12178;BME280;6152;48.728;9.256;2023-05-08T10:04:37;97519.72;;;16.00;100.00
12178;BME280;6152;48.728;9.256;2023-05-08T10:07:03;97519.25;;;16.06;100.00
12178;BME280;6152;48.728;9.256;2023-05-08T10:09:29;97520.06;;;16.07;100.00
12178;BME280;6152;48.728;9.256;2023-05-08T10:11:56;97522.94;;;16.04;100.00
12178;BME280;6152;48.728;9.256;2023-05-08T10:14:23;97515.56;;;16.09;100.00
12178;BME280;6152;48.728;9.256;2023-05-08T10:16:51;97517.47;;;16.18;100.00
12178;BME280;6152;48.728;9.256;2023-05-08T10:19:23;97518.44;;;16.28;100.00
12178;BME280;6152;48.728;9.256;2023-05-08T10:21:55;97529.44;;;16.33;100.00
12178;BME280;6152;48.728;9.256;2023-05-08T10:24:26;97514.50;;;16.45;100.00
12178;BME280;6152;48.728;9.256;2023-05-08T10:27:19;97517.28;;;16.65;100.00
12178;BME280;6152;48.728;9.256;2023-05-08T10:29:53;97516.81;;;16.72;100.00
12178;BME280;6152;48.728;9.256;2023-05-08T10:32:21;97518.72;;;16.92;100.00
12178;BME280;6152;48.728;9.256;2023-05-08T10:34:54;97522.00;;;17.16;100.00
12178;BME280;6152;48.728;9.256;2023-05-08T10:37:21;97521.00;;;17.28;100.00
12178;BME280;6152;48.728;9.256;2023-05-08T10:39:48;97523.34;;;17.42;100.00
12178;BME280;6152;48.728;9.256;2023-05-08T10:42:15;97526.38;;;17.70;100.00
12178;BME280;6152;48.728;9.256;2023-05-08T10:44:41;97526.06;;;17.84;100.00
12178;BME280;6152;48.728;9.256;2023-05-08T10:47:26;97516.91;;;17.99;100.00
12178;BME280;6152;48.728;9.256;2023-05-08T10:53:06;97519.91;;;18.15;100.00
12178;BME280;6152;48.728;9.256;2023-05-08T10:55:37;97522.00;;;18.21;100.00
12178;BME280;6152;48.728;9.256;2023-05-08T10:58:12;97505.44;;;18.30;100.00
12178;BME280;6152;48.728;9.256;2023-05-08T11:03:29;97508.28;;;18.69;100.00
12178;BME280;6152;48.728;9.256;2023-05-08T11:05:57;97508.31;;;18.78;100.00
12178;BME280;6152;48.728;9.256;2023-05-08T11:08:25;97505.94;;;18.75;100.00
12178;BME280;6152;48.728;9.256;2023-05-08T11:13:57;97509.72;;;18.82;100.00
12178;BME280;6152;48.728;9.256;2023-05-08T11:24:41;97504.28;;;18.84;100.00
12178;BME280;6152;48.728;9.256;2023-05-08T11:27:11;97501.56;;;18.95;100.00
12178;BME280;6152;48.728;9.256;2023-05-08T11:29:37;97492.41;;;18.99;100.00
12178;BME280;6152;48.728;9.256;2023-05-08T11:32:04;97496.56;;;19.01;100.00
12178;BME280;6152;48.728;9.256;2023-05-08T11:37:20;97504.94;;;19.16;100.00
12178;BME280;6152;48.728;9.256;2023-05-08T11:39:47;97498.00;;;19.25;100.00
12178;BME280;6152;48.728;9.256;2023-05-08T11:45:07;97494.09;;;19.19;100.00
12178;BME280;6152;48.728;9.256;2023-05-08T11:47:39;97488.25;;;19.06;100.00
12178;BME280;6152;48.728;9.256;2023-05-08T11:50:08;97492.97;;;19.02;100.00
12178;BME280;6152;48.728;9.256;2023-05-08T11:52:35;97488.81;;;19.19;100.00
12178;BME280;6152;48.728;9.256;2023-05-08T11:55:08;97484.38;;;19.20;100.00
12178;BME280;6152;48.728;9.256;2023-05-08T11:57:35;97483.09;;;19.14;100.00
12178;BME280;6152;48.728;9.256;2023-05-08T12:00:09;97487.66;;;18.93;100.00
12178;BME280;6152;48.728;9.256;2023-05-08T12:02:42;97487.06;;;18.80;100.00
12178;BME280;6152;48.728;9.256;2023-05-08T12:05:11;97482.75;;;18.48;100.00
12178;BME280;6152;48.728;9.256;2023-05-08T12:10:11;97488.03;;;18.48;100.00
12178;BME280;6152;48.728;9.256;2023-05-08T12:12:41;97485.25;;;18.71;100.00
12178;BME280;6152;48.728;9.256;2023-05-08T12:15:10;97488.81;;;19.19;100.00
12178;BME280;6152;48.728;9.256;2023-05-08T12:17:39;97492.47;;;19.37;100.00
12178;BME280;6152;48.728;9.256;2023-05-08T12:20:13;97488.63;;;19.51;100.00
12178;BME280;6152;48.728;9.256;2023-05-08T12:22:41;97483.88;;;19.54;100.00
12178;BME280;6152;48.728;9.256;2023-05-08T12:25:09;97480.94;;;19.77;100.00
12178;BME280;6152;48.728;9.256;2023-05-08T12:27:36;97485.25;;;19.87;100.00
12178;BME280;6152;48.728;9.256;2023-05-08T12:30:11;97492.13;;;20.17;100.00
12178;BME280;6152;48.728;9.256;2023-05-08T12:32:40;97492.13;;;20.36;100.00
12178;BME280;6152;48.728;9.256;2023-05-08T12:35:07;97484.81;;;20.57;100.00
12178;BME280;6152;48.728;9.256;2023-05-08T12:37:34;97485.69;;;21.03;100.00
12178;BME280;6152;48.728;9.256;2023-05-08T12:40:05;97482.63;;;21.25;100.00
12178;BME280;6152;48.728;9.256;2023-05-08T12:42:44;97485.28;;;21.60;100.00
12178;BME280;6152;48.728;9.256;2023-05-08T12:47:47;97471.66;;;22.42;100.00
12178;BME280;6152;48.728;9.256;2023-05-08T12:50:18;97477.34;;;22.55;100.00
12178;BME280;6152;48.728;9.256;2023-05-08T12:52:46;97483.81;;;22.79;100.00
12178;BME280;6152;48.728;9.256;2023-05-08T12:55:26;97475.44;;;23.07;100.00
12178;BME280;6152;48.728;9.256;2023-05-08T12:58:00;97473.41;;;23.43;100.00
12178;BME280;6152;48.728;9.256;2023-05-08T13:00:43;97478.66;;;23.35;100.00
12178;BME280;6152;48.728;9.256;2023-05-08T13:03:11;97474.25;;;23.02;100.00
12178;BME280;6152;48.728;9.256;2023-05-08T13:05:42;97472.03;;;22.55;100.00
12178;BME280;6152;48.728;9.256;2023-05-08T13:08:09;97472.94;;;22.30;100.00
12178;BME280;6152;48.728;9.256;2023-05-08T13:10:51;97476.81;;;21.75;100.00
12178;BME280;6152;48.728;9.256;2023-05-08T13:13:19;97469.47;;;21.15;100.00
12178;BME280;6152;48.728;9.256;2023-05-08T13:15:46;97465.38;;;20.94;100.00
12178;BME280;6152;48.728;9.256;2023-05-08T13:18:13;97464.50;;;20.76;100.00
12178;BME280;6152;48.728;9.256;2023-05-08T13:20:39;97471.78;;;20.74;100.00
12178;BME280;6152;48.728;9.256;2023-05-08T13:23:06;97463.84;;;20.74;100.00
12178;BME280;6152;48.728;9.256;2023-05-08T13:25:34;97464.63;;;20.84;100.00
12178;BME280;6152;48.728;9.256;2023-05-08T13:28:00;97467.38;;;20.92;100.00
12178;BME280;6152;48.728;9.256;2023-05-08T13:30:26;97466.13;;;20.86;100.00
12178;BME280;6152;48.728;9.256;2023-05-08T13:32:53;97460.81;;;20.69;100.00
12178;BME280;6152;48.728;9.256;2023-05-08T13:35:20;97465.03;;;20.61;100.00
12178;BME280;6152;48.728;9.256;2023-05-08T13:37:46;97459.38;;;20.47;100.00
12178;BME280;6152;48.728;9.256;2023-05-08T13:40:13;97457.31;;;20.41;100.00
12178;BME280;6152;48.728;9.256;2023-05-08T13:42:40;97456.78;;;20.37;100.00
12178;BME280;6152;48.728;9.256;2023-05-08T13:45:07;97458.66;;;20.54;100.00
12178;BME280;6152;48.728;9.256;2023-05-08T13:47:35;97449.47;;;20.76;100.00
12178;BME280;6152;48.728;9.256;2023-05-08T13:50:02;97445.13;;;20.85;100.00
12178;BME280;6152;48.728;9.256;2023-05-08T13:52:28;97435.94;;;20.79;100.00
12178;BME280;6152;48.728;9.256;2023-05-08T13:54:55;97437.31;;;20.83;100.00
12178;BME280;6152;48.728;9.256;2023-05-08T13:57:21;97425.78;;;20.57;100.00
12178;BME280;6152;48.728;9.256;2023-05-08T13:59:47;97432.56;;;20.59;100.00
12178;BME280;6152;48.728;9.256;2023-05-08T14:02:14;97432.28;;;20.62;100.00
12178;BME280;6152;48.728;9.256;2023-05-08T14:04:40;97432.53;;;20.69;100.00
12178;BME280;6152;48.728;9.256;2023-05-08T14:07:06;97439.63;;;20.96;100.00
12178;BME280;6152;48.728;9.256;2023-05-08T14:09:33;97432.94;;;21.19;100.00
12178;BME280;6152;48.728;9.256;2023-05-08T14:11:59;97435.06;;;21.33;100.00
12178;BME280;6152;48.728;9.256;2023-05-08T14:14:26;97437.41;;;21.54;100.00